Willmar, MN

2:10 PM CST on February 14, 2016 (GMT -0600)
Willmar | | Change Station
CLOSE
Current Station
Airport
Location: Willmar,
Elevation: 1125 ft
Nearby Weather Stations

Elev 1125 ft 45.12 °N, 95.13 °W | Updated 15 minutes ago

Light Snow
Light Snow
21 °F
Feels Like 7 °F
N
16
Wind Variable Wind from SSE

Today
High -- | Low -- °F
--% Chance of Precip.
Yesterday
High -- | Low -- °F
Precip. -- in
Pressure 29.86 in
Visibility 2.0 miles
Clouds Overcast 1400 ft
Windchill 7 °F
Dew Point 18 °F
Humidity 86%
Rainfall 0.00 in
Snow Depth Not available.
7:23 AM 5:46 PM
Waxing Crescent, 45% visible
METAR KBDH 141955Z AUTO 15014KT 2SM -SN OVC014 M06/M08 A2986 RMK AO2
Pressure 29.86 in
Visibility 2.0 miles
Clouds Overcast 1400 ft
Windchill 7 °F
Dew Point 18 °F
Humidity 86%
Rainfall 0.00 in
Snow Depth Not available.
7:23 AM 5:46 PM
Waxing Crescent, 45% visible
METAR KBDH 141955Z AUTO 15014KT 2SM -SN OVC014 M06/M08 A2986 RMK AO2

10-Day Weather Forecast

Almanac

Astronomy

Feb. 14, 2016 Rise Set
Actual Time
Civil Twilight
Nautical Twilight
Astronomical Twilight
Moon
Length of Visible Light
Length of Day
Tomorrow will be .
, % of the Moon is Illuminated

Today's Extremes

State Highs State Lows

Community

WunderPhotos

Upload Photos

1,892,880 photos uploaded!

WunderBlog® & News

Nearby

Air Quality

  Air Quality AQ Index Pollutant
Not available.

Snow Depth

Station Depth Elevation

Earthquake Activity

City Distance Mag. Time & Date
Minimum magnitude displayed is 2.5.

Coastal Water Temperatures

Place Temperature

Stations

Nearby Weather Stations

Station Location Temp. Windchill Dew Point Humidity Wind Precip. Elev Updated Type
                   

Watches & Warnings

There are currently no watches in effect.